createdAt,value
2018-08-23T00:00:03.959Z,18.60
2018-08-23T00:02:39.399Z,18.60
2018-08-23T00:05:15.793Z,18.50
2018-08-23T00:08:08.879Z,18.50
2018-08-23T00:10:44.324Z,18.40
2018-08-23T00:13:19.988Z,18.40
2018-08-23T00:15:55.338Z,18.40
2018-08-23T00:18:30.687Z,18.40
2018-08-23T00:21:07.669Z,18.30
2018-08-23T00:23:45.446Z,18.20
2018-08-23T00:26:20.994Z,18.20
2018-08-23T00:28:56.567Z,18.20
2018-08-23T00:31:36.106Z,18.10
2018-08-23T00:34:11.813Z,18.10
2018-08-23T00:36:47.277Z,18.00
2018-08-23T00:39:22.723Z,18.00
2018-08-23T00:42:04.621Z,18.00
2018-08-23T00:44:56.940Z,18.00
2018-08-23T00:47:33.747Z,17.90
2018-08-23T00:50:09.093Z,17.90
2018-08-23T00:52:45.857Z,17.90
2018-08-23T00:55:31.557Z,17.90
2018-08-23T00:58:06.989Z,17.80
2018-08-23T01:00:48.318Z,17.80
2018-08-23T01:03:26.857Z,17.80
2018-08-23T01:06:02.476Z,17.80
2018-08-23T01:08:37.986Z,17.80
2018-08-23T01:11:13.199Z,17.70
2018-08-23T01:13:48.777Z,17.70
2018-08-23T01:16:24.269Z,17.70
2018-08-23T01:19:05.501Z,17.70
2018-08-23T01:21:46.665Z,17.70
2018-08-23T01:24:22.342Z,17.70
2018-08-23T01:26:57.749Z,17.60
2018-08-23T01:29:33.161Z,17.60
2018-08-23T01:32:13.865Z,17.60
2018-08-23T01:34:49.438Z,17.60
2018-08-23T01:37:36.136Z,17.60
2018-08-23T01:40:12.509Z,17.60
2018-08-23T01:42:47.905Z,17.60
2018-08-23T01:45:23.507Z,17.60
2018-08-23T01:47:58.982Z,17.50
2018-08-23T01:50:34.399Z,17.50
2018-08-23T01:53:09.632Z,17.50
2018-08-23T01:55:45.030Z,17.40
2018-08-23T01:58:20.465Z,17.40
2018-08-23T02:01:28.424Z,17.40
2018-08-23T02:04:06.321Z,17.40
2018-08-23T02:06:42.189Z,17.40
2018-08-23T02:09:17.421Z,17.40
2018-08-23T02:11:52.877Z,17.40
2018-08-23T02:14:30.266Z,17.40
2018-08-23T02:17:05.919Z,17.40
2018-08-23T02:19:50.913Z,17.40
2018-08-23T02:22:26.631Z,17.30
2018-08-23T02:25:01.902Z,17.30
2018-08-23T02:28:04.840Z,17.30
2018-08-23T02:30:53.090Z,17.40
2018-08-23T02:33:28.765Z,17.30
2018-08-23T02:36:22.337Z,17.20
2018-08-23T02:39:01.033Z,17.20
2018-08-23T02:41:36.265Z,17.20
2018-08-23T02:44:11.878Z,17.20
2018-08-23T02:46:47.417Z,17.20
2018-08-23T02:49:23.136Z,17.20
2018-08-23T02:51:58.657Z,17.20
2018-08-23T02:54:34.350Z,17.20
2018-08-23T02:57:11.615Z,17.20
2018-08-23T02:59:47.069Z,17.20
2018-08-23T03:02:23.337Z,17.10
2018-08-23T03:04:59.017Z,17.10
2018-08-23T03:07:34.461Z,17.00
2018-08-23T03:10:10.317Z,17.00
2018-08-23T03:12:45.555Z,17.10
2018-08-23T03:15:25.494Z,17.10
2018-08-23T03:18:01.318Z,17.10
2018-08-23T03:20:36.699Z,17.10
2018-08-23T03:23:12.161Z,17.10
2018-08-23T03:25:47.684Z,17.10
2018-08-23T03:28:22.993Z,17.10
2018-08-23T03:31:04.015Z,17.00
2018-08-23T03:33:39.422Z,17.10
2018-08-23T03:36:14.988Z,17.00
2018-08-23T03:38:51.076Z,17.00
2018-08-23T03:41:26.794Z,17.00
2018-08-23T03:44:02.060Z,17.00
2018-08-23T03:47:08.709Z,17.00
2018-08-23T03:49:46.105Z,17.00
2018-08-23T03:52:22.757Z,17.00
2018-08-23T03:55:00.577Z,17.00
2018-08-23T03:57:41.136Z,16.90
2018-08-23T04:00:16.699Z,16.90
2018-08-23T04:02:52.059Z,16.90
2018-08-23T04:05:27.498Z,16.90
2018-08-23T04:08:03.068Z,16.90
2018-08-23T04:10:38.781Z,16.90
2018-08-23T04:13:14.265Z,16.90
2018-08-23T04:15:49.669Z,16.90
2018-08-23T04:18:25.201Z,16.90
2018-08-23T04:21:01.069Z,16.90
2018-08-23T04:23:36.396Z,17.00
2018-08-23T04:26:11.857Z,17.00
2018-08-23T04:28:47.341Z,17.00
2018-08-23T04:31:22.961Z,17.00
2018-08-23T04:33:58.397Z,17.10
2018-08-23T04:36:34.540Z,17.10
2018-08-23T04:39:11.556Z,17.10
2018-08-23T04:41:46.960Z,17.20
2018-08-23T04:44:22.369Z,17.30
2018-08-23T04:46:57.981Z,17.40
2018-08-23T04:49:34.001Z,17.50
2018-08-23T04:52:09.486Z,17.60
2018-08-23T04:54:44.780Z,17.60
2018-08-23T04:57:20.401Z,17.70
2018-08-23T04:59:55.845Z,17.60
2018-08-23T05:02:31.418Z,17.70
2018-08-23T05:05:06.957Z,17.80
2018-08-23T05:07:42.859Z,17.80
2018-08-23T05:10:18.343Z,17.90
2018-08-23T05:12:53.764Z,18.00
2018-08-23T05:15:29.032Z,18.10
2018-08-23T05:18:04.448Z,18.20
2018-08-23T05:20:39.848Z,18.30
2018-08-23T05:23:15.529Z,18.40
2018-08-23T05:25:52.512Z,18.50
2018-08-23T05:28:27.920Z,18.60
2018-08-23T05:31:03.341Z,18.70
2018-08-23T05:33:38.865Z,18.90
2018-08-23T05:36:17.165Z,19.00
2018-08-23T05:38:52.626Z,19.10
2018-08-23T05:41:27.968Z,19.10
2018-08-23T05:44:13.532Z,19.20
2018-08-23T05:46:51.521Z,19.10
2018-08-23T05:49:27.411Z,19.10
2018-08-23T05:52:02.712Z,19.10
2018-08-23T05:54:38.165Z,19.10
2018-08-23T05:57:13.678Z,19.20
2018-08-23T05:59:49.393Z,19.20
2018-08-23T06:02:24.722Z,19.20
2018-08-23T06:05:00.282Z,19.20
2018-08-23T06:07:35.830Z,19.10
2018-08-23T06:10:11.261Z,19.20
2018-08-23T06:12:46.557Z,19.30
2018-08-23T06:15:22.471Z,19.30
2018-08-23T06:17:57.769Z,19.40
2018-08-23T06:20:33.369Z,19.50
2018-08-23T06:23:08.860Z,19.50
2018-08-23T06:25:45.381Z,19.50
2018-08-23T06:28:24.117Z,19.50
2018-08-23T06:31:00.650Z,19.60
2018-08-23T06:40:36.668Z,19.80
2018-08-23T06:43:12.230Z,20.00
2018-08-23T06:45:47.776Z,20.10
2018-08-23T06:48:23.432Z,20.10
2018-08-23T06:50:59.970Z,20.20
2018-08-23T06:53:52.750Z,20.40
2018-08-23T06:56:28.057Z,20.50
2018-08-23T06:59:03.598Z,20.60
2018-08-23T07:01:44.140Z,20.70
2018-08-23T07:04:19.770Z,20.70
2018-08-23T07:06:55.290Z,20.80
2018-08-23T07:09:37.981Z,20.90
2018-08-23T07:12:18.459Z,21.00
2018-08-23T07:14:53.822Z,21.00
2018-08-23T07:17:30.009Z,21.10
2018-08-23T07:20:12.085Z,21.20
2018-08-23T07:22:47.389Z,21.30
2018-08-23T07:25:23.422Z,21.30
2018-08-23T07:27:58.666Z,21.50
2018-08-23T07:30:34.402Z,21.60
2018-08-23T07:33:09.664Z,21.60
2018-08-23T07:35:45.855Z,21.60
2018-08-23T07:38:21.236Z,21.80
2018-08-23T07:40:56.660Z,22.20
2018-08-23T07:43:32.106Z,23.00
2018-08-23T07:46:07.948Z,23.90
2018-08-23T07:48:43.251Z,24.30
2018-08-23T07:51:22.599Z,24.80
2018-08-23T07:54:02.020Z,25.00
2018-08-23T07:56:37.438Z,25.50
2018-08-23T07:59:13.506Z,25.50
2018-08-23T08:01:49.037Z,25.20
2018-08-23T08:04:24.521Z,25.20
2018-08-23T08:07:00.342Z,25.30
2018-08-23T08:09:35.722Z,25.50
2018-08-23T08:12:16.605Z,25.60
2018-08-23T08:14:51.929Z,25.40
2018-08-23T08:17:32.566Z,25.40
2018-08-23T08:20:09.997Z,25.10
2018-08-23T08:22:45.601Z,25.00
2018-08-23T08:25:21.072Z,24.90
2018-08-23T08:27:56.496Z,24.80
2018-08-23T08:30:43.176Z,25.00
2018-08-23T08:33:22.023Z,25.00
2018-08-23T08:36:01.461Z,25.00
2018-08-23T08:38:37.385Z,25.20
2018-08-23T08:41:13.042Z,25.10
2018-08-23T08:43:48.343Z,24.90
2018-08-23T08:46:23.759Z,25.10
2018-08-23T08:48:59.033Z,25.40
2018-08-23T08:51:34.651Z,25.20
2018-08-23T08:54:10.169Z,25.00
2018-08-23T08:56:46.753Z,25.00
2018-08-23T08:59:22.427Z,25.20
2018-08-23T09:01:58.376Z,25.60
2018-08-23T09:04:36.148Z,25.80
2018-08-23T09:07:11.720Z,26.20
2018-08-23T09:09:47.203Z,26.30
2018-08-23T09:12:22.713Z,26.40
2018-08-23T09:14:58.162Z,26.40
2018-08-23T09:17:43.553Z,26.00
2018-08-23T09:20:19.779Z,26.30
2018-08-23T09:22:56.173Z,26.50
2018-08-23T09:25:36.854Z,26.20
2018-08-23T09:28:12.510Z,26.20
2018-08-23T09:30:47.981Z,26.50
2018-08-23T09:33:24.512Z,26.40
2018-08-23T09:35:59.973Z,26.70
2018-08-23T09:38:35.501Z,27.00
2018-08-23T09:41:10.885Z,26.90
2018-08-23T09:43:46.391Z,26.50
2018-08-23T09:46:21.869Z,26.30
2018-08-23T09:48:57.382Z,26.00
2018-08-23T09:51:32.924Z,26.00
2018-08-23T09:54:08.716Z,26.20
2018-08-23T09:56:44.213Z,26.00
2018-08-23T09:59:19.677Z,26.10
2018-08-23T10:02:00.451Z,26.10
2018-08-23T10:04:41.355Z,25.80
2018-08-23T10:07:18.477Z,25.80
2018-08-23T10:09:59.606Z,26.10
2018-08-23T10:12:40.270Z,26.00
2018-08-23T10:15:21.421Z,26.20
2018-08-23T10:18:02.064Z,26.50
2018-08-23T10:20:47.294Z,26.60
2018-08-23T10:23:24.870Z,26.90
2018-08-23T10:26:04.437Z,27.00
2018-08-23T10:28:50.505Z,27.00
2018-08-23T10:31:26.243Z,26.90
2018-08-23T10:34:01.829Z,26.90
2018-08-23T10:36:37.124Z,27.10
2018-08-23T10:39:13.917Z,26.90
2018-08-23T10:41:49.232Z,26.60
2018-08-23T10:44:24.816Z,26.50
2018-08-23T10:47:00.329Z,26.50
2018-08-23T10:49:36.009Z,26.30
2018-08-23T10:52:11.405Z,26.30
2018-08-23T10:54:46.917Z,26.10
2018-08-23T10:57:22.417Z,26.20
2018-08-23T10:59:58.089Z,26.30
2018-08-23T11:02:33.425Z,26.70
2018-08-23T11:05:09.085Z,26.80
2018-08-23T11:07:50.165Z,26.90
2018-08-23T11:10:31.157Z,27.30
2018-08-23T11:13:11.909Z,27.60
2018-08-23T11:15:47.560Z,27.90
2018-08-23T11:19:25.928Z,27.70
2018-08-23T11:22:01.633Z,27.50
2018-08-23T11:24:37.018Z,27.40
2018-08-23T11:27:12.446Z,27.50
2018-08-23T11:29:47.781Z,27.60
2018-08-23T11:32:23.417Z,27.20
2018-08-23T11:34:58.716Z,26.90
2018-08-23T11:37:34.109Z,26.90
2018-08-23T11:40:09.557Z,27.10
2018-08-23T11:42:45.147Z,27.00
2018-08-23T11:45:20.460Z,26.80
2018-08-23T11:47:56.299Z,27.00
2018-08-23T11:50:31.742Z,27.10
2018-08-23T11:53:07.431Z,26.90
2018-08-23T11:55:42.789Z,26.80
2018-08-23T11:58:18.273Z,26.60
2018-08-23T12:00:57.184Z,26.70
2018-08-23T12:03:32.845Z,26.80
2018-08-23T12:06:09.500Z,26.90
2018-08-23T12:08:45.584Z,27.10
2018-08-23T12:11:21.105Z,27.00
2018-08-23T12:13:56.674Z,26.90
2018-08-23T12:16:31.976Z,27.00
2018-08-23T12:19:07.433Z,26.70
2018-08-23T12:21:42.773Z,26.60
2018-08-23T12:24:18.248Z,26.60
2018-08-23T12:26:53.541Z,26.80
2018-08-23T12:29:28.981Z,26.70
2018-08-23T12:32:04.540Z,26.90
2018-08-23T12:34:40.274Z,27.00
2018-08-23T12:37:21.073Z,27.00
2018-08-23T12:40:02.198Z,27.20
2018-08-23T12:42:45.272Z,27.00
2018-08-23T12:45:20.757Z,27.10
2018-08-23T12:47:56.412Z,26.90
2018-08-23T12:50:31.874Z,27.10
2018-08-23T12:53:07.534Z,27.40
2018-08-23T12:55:42.879Z,27.20
2018-08-23T12:58:18.400Z,27.40
2018-08-23T13:00:53.887Z,27.40
2018-08-23T13:03:29.408Z,27.50
2018-08-23T13:06:04.873Z,27.70
2018-08-23T13:08:40.796Z,27.50
2018-08-23T13:11:16.106Z,27.40
2018-08-23T13:13:51.710Z,27.50
2018-08-23T13:16:27.099Z,27.50
2018-08-23T13:19:02.582Z,27.80
2018-08-23T13:21:38.004Z,27.60
2018-08-23T13:24:13.629Z,27.50
2018-08-23T13:26:49.052Z,27.40
2018-08-23T13:29:25.061Z,27.40
2018-08-23T13:32:00.253Z,27.50
2018-08-23T13:34:35.726Z,27.50
2018-08-23T13:37:11.058Z,27.40
2018-08-23T13:39:46.782Z,27.40
2018-08-23T13:42:22.281Z,27.50
2018-08-23T13:44:58.040Z,27.50
2018-08-23T13:47:33.485Z,27.40
2018-08-23T13:50:09.253Z,27.40
2018-08-23T13:52:44.489Z,27.40
2018-08-23T13:55:19.933Z,27.30
2018-08-23T13:57:55.152Z,27.40
2018-08-23T14:00:36.078Z,27.30
2018-08-23T14:03:12.088Z,27.50
2018-08-23T14:05:47.638Z,27.40
2018-08-23T14:08:23.448Z,27.50
2018-08-23T14:10:58.976Z,27.40
2018-08-23T14:13:34.306Z,27.50
2018-08-23T14:16:09.857Z,27.40
2018-08-23T14:18:45.273Z,27.60
2018-08-23T14:21:20.944Z,27.50
2018-08-23T14:23:56.193Z,27.60
2018-08-23T14:26:32.053Z,27.30
2018-08-23T14:29:07.333Z,27.20
2018-08-23T14:31:42.951Z,27.10
2018-08-23T14:34:18.268Z,27.00
2018-08-23T14:36:53.931Z,27.00
2018-08-23T14:39:29.153Z,27.00
2018-08-23T14:42:04.705Z,27.10
2018-08-23T14:44:39.912Z,27.10
2018-08-23T14:47:20.846Z,27.00
2018-08-23T14:49:56.129Z,26.90
2018-08-23T14:52:31.709Z,26.90
2018-08-23T14:55:07.239Z,26.80
2018-08-23T14:57:42.697Z,26.80
2018-08-23T15:00:18.045Z,26.70
2018-08-23T15:02:53.493Z,26.60
2018-08-23T15:05:28.748Z,26.70
2018-08-23T15:08:04.598Z,26.70
2018-08-23T15:10:39.797Z,26.60
2018-08-23T15:13:15.493Z,26.60
2018-08-23T15:15:52.061Z,26.50
2018-08-23T15:18:27.801Z,26.40
2018-08-23T15:21:03.189Z,26.50
2018-08-23T15:23:38.892Z,26.40
2018-08-23T15:26:14.314Z,26.40
2018-08-23T15:28:49.677Z,26.30
2018-08-23T15:31:24.879Z,26.30
2018-08-23T15:34:00.369Z,26.30
2018-08-23T15:36:35.621Z,26.10
2018-08-23T15:39:16.726Z,26.10
2018-08-23T15:41:52.235Z,26.00
2018-08-23T15:44:27.785Z,26.00
2018-08-23T15:47:03.456Z,26.00
2018-08-23T15:49:39.084Z,26.00
2018-08-23T15:52:14.453Z,26.00
2018-08-23T15:54:49.909Z,26.00
2018-08-23T15:57:25.321Z,25.90
2018-08-23T16:00:01.065Z,25.80
2018-08-23T16:02:36.610Z,25.70
2018-08-23T16:05:12.177Z,25.70
2018-08-23T16:07:47.742Z,25.60
2018-08-23T16:10:23.463Z,25.60
2018-08-23T16:12:58.787Z,25.60
2018-08-23T16:15:34.560Z,25.50
2018-08-23T16:18:15.312Z,25.50
2018-08-23T16:20:55.683Z,25.40
2018-08-23T16:23:30.959Z,25.30
2018-08-23T16:26:06.488Z,25.30
2018-08-23T16:28:48.360Z,25.30
2018-08-23T16:31:24.029Z,25.30
2018-08-23T16:33:59.557Z,25.20
2018-08-23T16:36:34.990Z,25.20
2018-08-23T16:39:10.449Z,25.10
2018-08-23T16:41:46.009Z,25.00
2018-08-23T16:44:21.348Z,24.90
2018-08-23T16:46:57.109Z,24.80
2018-08-23T16:49:32.525Z,24.80
2018-08-23T16:52:08.200Z,24.80
2018-08-23T16:54:43.753Z,24.70
2018-08-23T16:57:19.425Z,24.60
2018-08-23T16:59:54.937Z,24.60
2018-08-23T17:02:30.606Z,24.50
2018-08-23T17:05:05.946Z,24.40
2018-08-23T17:07:41.813Z,24.20
2018-08-23T17:10:17.211Z,24.10
2018-08-23T17:12:52.784Z,24.00
2018-08-23T17:15:32.174Z,23.90
2018-08-23T17:18:07.939Z,23.90
2018-08-23T17:20:43.204Z,23.80
2018-08-23T17:23:18.839Z,23.70
2018-08-23T17:25:54.323Z,23.60
2018-08-23T17:28:29.865Z,23.60
2018-08-23T17:31:05.212Z,23.50
2018-08-23T17:33:40.764Z,23.40
2018-08-23T17:36:16.093Z,23.30
2018-08-23T17:38:51.557Z,23.30
2018-08-23T17:41:26.897Z,23.20
2018-08-23T17:44:02.558Z,23.10
2018-08-23T17:46:37.825Z,23.00
2018-08-23T17:49:13.203Z,23.00
2018-08-23T17:51:48.546Z,23.00
2018-08-23T17:54:24.123Z,22.90
2018-08-23T17:56:59.354Z,22.90
2018-08-23T17:59:35.071Z,22.80
2018-08-23T18:02:10.492Z,22.70
2018-08-23T18:04:46.120Z,22.70
2018-08-23T18:07:21.455Z,22.60
2018-08-23T18:09:57.149Z,22.50
2018-08-23T18:12:32.396Z,22.50
2018-08-23T18:15:09.841Z,22.40
2018-08-23T18:17:45.294Z,22.30
2018-08-23T18:20:20.866Z,22.20
2018-08-23T18:22:56.297Z,22.20
2018-08-23T18:25:32.184Z,22.00
2018-08-23T18:28:07.451Z,21.90
2018-08-23T18:30:43.017Z,21.90
2018-08-23T18:33:18.390Z,21.90
2018-08-23T18:35:53.905Z,21.90
2018-08-23T18:38:29.566Z,21.70
2018-08-23T18:41:05.132Z,21.60
2018-08-23T18:43:40.600Z,21.60
2018-08-23T18:46:16.307Z,21.50
2018-08-23T18:48:51.730Z,21.30
2018-08-23T18:51:28.845Z,21.30
2018-08-23T18:54:04.446Z,21.20
2018-08-23T18:56:40.102Z,21.10
2018-08-23T18:59:15.456Z,21.10
2018-08-23T19:01:51.227Z,21.10
2018-08-23T19:04:26.756Z,21.10
2018-08-23T19:07:02.325Z,21.10
2018-08-23T19:09:38.177Z,21.10
2018-08-23T19:12:13.625Z,21.00
2018-08-23T19:14:48.832Z,20.90
2018-08-23T19:17:29.837Z,20.90
2018-08-23T19:20:05.370Z,20.80
2018-08-23T19:22:40.924Z,20.70
2018-08-23T19:25:16.468Z,20.70
2018-08-23T19:27:51.825Z,20.60
2018-08-23T19:30:27.341Z,20.60
2018-08-23T19:33:03.401Z,20.60
2018-08-23T19:35:38.228Z,20.50
2018-08-23T19:38:13.941Z,20.50
2018-08-23T19:40:49.359Z,20.60
2018-08-23T19:43:24.969Z,20.50
2018-08-23T19:46:05.634Z,20.50
2018-08-23T19:48:41.701Z,20.40
2018-08-23T19:51:17.109Z,20.40
2018-08-23T19:53:52.678Z,20.30
2018-08-23T19:56:28.094Z,20.30
2018-08-23T19:59:03.722Z,20.20
2018-08-23T20:01:38.890Z,20.10
2018-08-23T20:04:14.530Z,20.20
2018-08-23T20:06:50.069Z,20.10
2018-08-23T20:09:26.016Z,20.10
2018-08-23T20:12:01.485Z,20.00
2018-08-23T20:14:37.109Z,20.00
2018-08-23T20:17:12.566Z,20.00
2018-08-23T20:19:48.114Z,20.00
2018-08-23T20:22:23.887Z,20.00
2018-08-23T20:24:59.570Z,20.00
2018-08-23T20:27:34.789Z,19.90
2018-08-23T20:30:10.291Z,20.00
2018-08-23T20:32:45.642Z,20.00
2018-08-23T20:35:21.295Z,20.00
2018-08-23T20:37:56.792Z,20.00
2018-08-23T20:40:32.376Z,20.10
2018-08-23T20:43:07.586Z,20.10
2018-08-23T20:45:43.276Z,20.20
2018-08-23T20:48:18.688Z,20.30
2018-08-23T20:50:54.234Z,20.40
2018-08-23T20:53:29.677Z,20.50
2018-08-23T20:56:05.558Z,20.50
2018-08-23T20:58:40.886Z,20.50
2018-08-23T21:01:16.454Z,20.50
2018-08-23T21:03:52.076Z,20.50
2018-08-23T21:06:27.605Z,20.60
2018-08-23T21:09:03.435Z,20.60
2018-08-23T21:11:39.258Z,20.70
2018-08-23T21:14:14.705Z,20.70
2018-08-23T21:16:50.291Z,20.80
2018-08-23T21:19:25.759Z,20.90
2018-08-23T21:22:01.345Z,20.90
2018-08-23T21:24:36.594Z,21.00
2018-08-23T21:27:12.025Z,21.00
2018-08-23T21:29:47.403Z,21.00
2018-08-23T21:32:23.023Z,21.00
2018-08-23T21:34:58.485Z,21.00
2018-08-23T21:37:34.120Z,21.00
2018-08-23T21:40:09.516Z,21.10
2018-08-23T21:42:45.114Z,21.20
2018-08-23T21:45:20.440Z,21.10
2018-08-23T21:47:56.093Z,21.20
2018-08-23T21:50:31.469Z,21.20
2018-08-23T21:53:07.001Z,21.20
2018-08-23T21:55:42.339Z,21.20
2018-08-23T21:58:17.884Z,21.20
2018-08-23T22:00:54.344Z,21.20
2018-08-23T22:03:29.800Z,21.20
2018-08-23T22:06:05.492Z,21.20
2018-08-23T22:08:41.204Z,21.20
2018-08-23T22:11:16.501Z,21.20
2018-08-23T22:13:51.984Z,21.20
2018-08-23T22:16:27.512Z,21.20
2018-08-23T22:19:03.470Z,21.20
2018-08-23T22:21:38.852Z,21.20
2018-08-23T22:24:14.589Z,21.20
2018-08-23T22:26:49.940Z,21.20
2018-08-23T22:29:25.490Z,21.20
2018-08-23T22:32:00.797Z,21.20
2018-08-23T22:34:36.270Z,21.30
2018-08-23T22:37:11.784Z,21.30
2018-08-23T22:39:47.233Z,21.30
2018-08-23T22:42:22.405Z,21.20
2018-08-23T22:44:57.956Z,21.30
2018-08-23T22:47:33.469Z,21.20
2018-08-23T22:50:09.657Z,21.20
2018-08-23T22:52:45.013Z,21.20
2018-08-23T22:55:20.653Z,21.20
2018-08-23T22:57:55.873Z,21.20
2018-08-23T23:00:36.764Z,21.10
2018-08-23T23:03:17.456Z,21.10
2018-08-23T23:05:53.186Z,21.10
2018-08-23T23:08:28.698Z,21.00
2018-08-23T23:11:04.281Z,21.00
2018-08-23T23:13:39.649Z,20.90
2018-08-23T23:16:15.164Z,20.90
2018-08-23T23:18:50.449Z,20.90
2018-08-23T23:21:25.996Z,20.80
2018-08-23T23:24:01.796Z,20.70
2018-08-23T23:26:37.357Z,20.50
2018-08-23T23:29:12.870Z,20.50
2018-08-23T23:31:48.352Z,20.30
2018-08-23T23:34:23.785Z,20.20
2018-08-23T23:36:59.241Z,20.10
2018-08-23T23:39:34.729Z,20.00
2018-08-23T23:42:10.337Z,20.00
2018-08-23T23:44:45.740Z,19.90
2018-08-23T23:47:21.228Z,19.90
2018-08-23T23:49:56.961Z,19.80
2018-08-23T23:52:32.325Z,19.70
2018-08-23T23:55:07.841Z,19.70
2018-08-23T23:57:44.326Z,19.60
